sensor_id;sensor_type;location;lat;lon;timestamp;pressure;altitude;pressure_sealevel;temperature;humidity
7836;BME280;3963;42.658;23.298;2023-05-24T00:02:09;45488.53;;;-144.44;100.00
7836;BME280;3963;42.658;23.298;2023-05-24T00:04:38;45500.38;;;-144.44;100.00
7836;BME280;3963;42.658;23.298;2023-05-24T00:07:05;45514.22;;;-144.44;100.00
7836;BME280;3963;42.658;23.298;2023-05-24T00:09:32;45514.22;;;-144.44;100.00
7836;BME280;3963;42.658;23.298;2023-05-24T00:12:00;45579.44;;;-144.44;100.00
7836;BME280;3963;42.658;23.298;2023-05-24T00:14:27;45601.19;;;-144.44;100.00
7836;BME280;3963;42.658;23.298;2023-05-24T00:16:54;45609.09;;;-144.44;100.00
7836;BME280;3963;42.658;23.298;2023-05-24T00:19:21;45618.97;;;-144.44;100.00
7836;BME280;3963;42.658;23.298;2023-05-24T00:21:48;45532.00;;;-144.44;100.00
7836;BME280;3963;42.658;23.298;2023-05-24T00:24:15;45528.06;;;-144.44;100.00
7836;BME280;3963;42.658;23.298;2023-05-24T00:26:42;45551.78;;;-144.44;100.00
7836;BME280;3963;42.658;23.298;2023-05-24T00:29:10;45609.09;;;-144.44;100.00
7836;BME280;3963;42.658;23.298;2023-05-24T00:31:37;45650.59;;;-144.44;100.00
7836;BME280;3963;42.658;23.298;2023-05-24T00:34:04;45668.38;;;-144.44;100.00
7836;BME280;3963;42.658;23.298;2023-05-24T00:36:32;45711.88;;;-144.44;100.00
7836;BME280;3963;42.658;23.298;2023-05-24T00:38:58;45692.09;;;-144.44;100.00
7836;BME280;3963;42.658;23.298;2023-05-24T00:41:25;45690.13;;;-144.44;100.00
7836;BME280;3963;42.658;23.298;2023-05-24T00:43:52;45761.28;;;-144.44;100.00
7836;BME280;3963;42.658;23.298;2023-05-24T00:46:24;45800.81;;;-144.44;100.00
7836;BME280;3963;42.658;23.298;2023-05-24T00:48:52;45816.63;;;-144.44;100.00
7836;BME280;3963;42.658;23.298;2023-05-24T00:51:19;45824.53;;;-144.44;100.00
7836;BME280;3963;42.658;23.298;2023-05-24T00:53:47;45854.19;;;-144.44;100.00
7836;BME280;3963;42.658;23.298;2023-05-24T00:56:15;45868.03;;;-144.44;100.00
7836;BME280;3963;42.658;23.298;2023-05-24T00:58:43;45852.22;;;-144.44;100.00
7836;BME280;3963;42.658;23.298;2023-05-24T01:01:10;45826.50;;;-144.44;100.00
7836;BME280;3963;42.658;23.298;2023-05-24T01:03:39;45824.53;;;-144.44;100.00
7836;BME280;3963;42.658;23.298;2023-05-24T01:06:07;45840.34;;;-144.44;100.00
7836;BME280;3963;42.658;23.298;2023-05-24T01:08:44;45808.72;;;-144.44;100.00
7836;BME280;3963;42.658;23.298;2023-05-24T01:11:23;45785.00;;;-144.44;100.00
7836;BME280;3963;42.658;23.298;2023-05-24T01:13:58;45838.38;;;-144.44;100.00
7836;BME280;3963;42.658;23.298;2023-05-24T01:16:35;45891.75;;;-144.44;100.00
7836;BME280;3963;42.658;23.298;2023-05-24T01:19:14;45915.47;;;-144.44;100.00
7836;BME280;3963;42.658;23.298;2023-05-24T01:21:52;45947.09;;;-144.44;100.00
7836;BME280;3963;42.658;23.298;2023-05-24T01:24:27;46065.69;;;-144.44;100.00
7836;BME280;3963;42.658;23.298;2023-05-24T01:27:04;46105.22;;;-144.44;100.00
7836;BME280;3963;42.658;23.298;2023-05-24T01:29:32;46134.88;;;-144.44;100.00
7836;BME280;3963;42.658;23.298;2023-05-24T01:32:00;46008.38;;;-144.44;100.00
7836;BME280;3963;42.658;23.298;2023-05-24T01:34:27;45962.91;;;-144.44;100.00
7836;BME280;3963;42.658;23.298;2023-05-24T01:36:54;45941.16;;;-144.44;100.00
7836;BME280;3963;42.658;23.298;2023-05-24T01:39:23;45951.03;;;-144.44;100.00
7836;BME280;3963;42.658;23.298;2023-05-24T01:41:58;45966.84;;;-144.44;100.00
7836;BME280;3963;42.658;23.298;2023-05-24T01:44:35;45947.09;;;-144.44;100.00
7836;BME280;3963;42.658;23.298;2023-05-24T01:47:13;45964.88;;;-144.44;100.00
7836;BME280;3963;42.658;23.298;2023-05-24T01:49:47;46047.91;;;-144.44;100.00
7836;BME280;3963;42.658;23.298;2023-05-24T01:52:18;46065.69;;;-144.44;100.00
7836;BME280;3963;42.658;23.298;2023-05-24T01:54:47;46081.50;;;-144.44;100.00
7836;BME280;3963;42.658;23.298;2023-05-24T01:57:18;46160.56;;;-144.44;100.00
7836;BME280;3963;42.658;23.298;2023-05-24T01:59:48;46192.22;;;-144.44;100.00
7836;BME280;3963;42.658;23.298;2023-05-24T02:02:15;46198.13;;;-144.44;100.00
7836;BME280;3963;42.658;23.298;2023-05-24T02:04:42;46174.41;;;-144.44;100.00
7836;BME280;3963;42.658;23.298;2023-05-24T02:07:09;46160.56;;;-144.44;100.00
7836;BME280;3963;42.658;23.298;2023-05-24T02:09:36;46208.03;;;-144.44;100.00
7836;BME280;3963;42.658;23.298;2023-05-24T02:12:03;46243.59;;;-144.44;100.00
7836;BME280;3963;42.658;23.298;2023-05-24T02:14:30;46231.75;;;-144.44;100.00
7836;BME280;3963;42.658;23.298;2023-05-24T02:16:58;46156.63;;;-144.44;100.00
7836;BME280;3963;42.658;23.298;2023-05-24T02:19:26;46105.22;;;-144.44;100.00
7836;BME280;3963;42.658;23.298;2023-05-24T02:21:53;46020.22;;;-144.44;100.00
7836;BME280;3963;42.658;23.298;2023-05-24T02:24:20;46032.09;;;-144.44;100.00
7836;BME280;3963;42.658;23.298;2023-05-24T02:26:47;46162.56;;;-144.44;100.00
7836;BME280;3963;42.658;23.298;2023-05-24T02:29:14;46308.84;;;-144.44;100.00
7836;BME280;3963;42.658;23.298;2023-05-24T02:31:41;46486.75;;;-144.44;100.00
7836;BME280;3963;42.658;23.298;2023-05-24T02:34:09;46506.53;;;-144.44;100.00
7836;BME280;3963;42.658;23.298;2023-05-24T02:36:36;46496.66;;;-144.44;100.00
7836;BME280;3963;42.658;23.298;2023-05-24T02:39:03;46504.56;;;-144.44;100.00
7836;BME280;3963;42.658;23.298;2023-05-24T02:41:30;46565.84;;;-144.44;100.00
7836;BME280;3963;42.658;23.298;2023-05-24T02:43:57;46587.59;;;-144.44;100.00
7836;BME280;3963;42.658;23.298;2023-05-24T02:46:23;46674.59;;;-144.44;100.00
7836;BME280;3963;42.658;23.298;2023-05-24T02:48:50;46553.97;;;-144.44;100.00
7836;BME280;3963;42.658;23.298;2023-05-24T02:51:18;46470.94;;;-144.44;100.00
7836;BME280;3963;42.658;23.298;2023-05-24T02:53:45;46532.22;;;-144.44;100.00
7836;BME280;3963;42.658;23.298;2023-05-24T02:56:12;46421.53;;;-144.44;100.00
7836;BME280;3963;42.658;23.298;2023-05-24T02:58:41;46243.59;;;-144.44;100.00
7836;BME280;3963;42.658;23.298;2023-05-24T03:01:09;46271.28;;;-144.44;100.00
7836;BME280;3963;42.658;23.298;2023-05-24T03:03:37;46210.00;;;-144.44;100.00
7836;BME280;3963;42.658;23.298;2023-05-24T03:06:04;46255.47;;;-144.44;100.00
7836;BME280;3963;42.658;23.298;2023-05-24T03:08:33;46310.81;;;-144.44;100.00
7836;BME280;3963;42.658;23.298;2023-05-24T03:11:01;46498.63;;;-144.44;100.00
7836;BME280;3963;42.658;23.298;2023-05-24T03:13:28;46605.38;;;-144.44;100.00
7836;BME280;3963;42.658;23.298;2023-05-24T03:15:55;46654.81;;;-144.44;100.00
7836;BME280;3963;42.658;23.298;2023-05-24T03:18:21;46625.16;;;-144.44;100.00
7836;BME280;3963;42.658;23.298;2023-05-24T03:20:48;46587.59;;;-144.44;100.00
7836;BME280;3963;42.658;23.298;2023-05-24T03:23:15;46395.81;;;-144.44;100.00
7836;BME280;3963;42.658;23.298;2023-05-24T03:25:43;46253.50;;;-144.44;100.00
7836;BME280;3963;42.658;23.298;2023-05-24T03:28:10;46192.22;;;-144.44;100.00
7836;BME280;3963;42.658;23.298;2023-05-24T03:30:39;46178.38;;;-144.44;100.00
7836;BME280;3963;42.658;23.298;2023-05-24T03:33:05;46283.13;;;-144.44;100.00
7836;BME280;3963;42.658;23.298;2023-05-24T03:35:32;46350.34;;;-144.44;100.00
7836;BME280;3963;42.658;23.298;2023-05-24T03:37:59;46413.63;;;-144.44;100.00
7836;BME280;3963;42.658;23.298;2023-05-24T03:40:26;46362.22;;;-144.44;100.00
7836;BME280;3963;42.658;23.298;2023-05-24T03:42:57;46271.28;;;-144.44;100.00
7836;BME280;3963;42.658;23.298;2023-05-24T03:45:24;46202.09;;;-144.44;100.00
7836;BME280;3963;42.658;23.298;2023-05-24T03:47:52;46150.69;;;-144.44;100.00
7836;BME280;3963;42.658;23.298;2023-05-24T03:50:18;46239.66;;;-144.44;100.00
7836;BME280;3963;42.658;23.298;2023-05-24T03:52:45;46257.44;;;-144.44;100.00
7836;BME280;3963;42.658;23.298;2023-05-24T03:55:12;46314.78;;;-144.44;100.00
7836;BME280;3963;42.658;23.298;2023-05-24T03:57:39;46374.06;;;-144.44;100.00
7836;BME280;3963;42.658;23.298;2023-05-24T04:00:10;46425.47;;;-144.44;100.00
7836;BME280;3963;42.658;23.298;2023-05-24T04:02:37;46510.50;;;-144.44;100.00
7836;BME280;3963;42.658;23.298;2023-05-24T04:05:05;46429.44;;;-144.44;100.00
7836;BME280;3963;42.658;23.298;2023-05-24T04:07:34;46439.31;;;-144.44;100.00
7836;BME280;3963;42.658;23.298;2023-05-24T04:10:01;46449.19;;;-144.44;100.00
7836;BME280;3963;42.658;23.298;2023-05-24T04:12:29;46423.50;;;-144.44;100.00
7836;BME280;3963;42.658;23.298;2023-05-24T04:14:56;46441.28;;;-144.44;100.00
7836;BME280;3963;42.658;23.298;2023-05-24T04:17:24;46393.84;;;-144.44;100.00
7836;BME280;3963;42.658;23.298;2023-05-24T04:19:51;46480.84;;;-144.44;100.00
7836;BME280;3963;42.658;23.298;2023-05-24T04:22:18;46571.78;;;-144.44;100.00
7836;BME280;3963;42.658;23.298;2023-05-24T04:24:45;46433.38;;;-144.44;100.00
7836;BME280;3963;42.658;23.298;2023-05-24T04:27:12;46176.38;;;-144.44;100.00
7836;BME280;3963;42.658;23.298;2023-05-24T04:29:39;46083.47;;;-144.44;100.00
7836;BME280;3963;42.658;23.298;2023-05-24T04:32:07;46034.06;;;-144.44;100.00
7836;BME280;3963;42.658;23.298;2023-05-24T04:34:36;46022.19;;;-144.44;100.00
7836;BME280;3963;42.658;23.298;2023-05-24T04:37:07;45980.69;;;-144.44;100.00
7836;BME280;3963;42.658;23.298;2023-05-24T04:39:33;45964.88;;;-144.44;100.00
7836;BME280;3963;42.658;23.298;2023-05-24T04:42:00;45949.06;;;-144.44;100.00
7836;BME280;3963;42.658;23.298;2023-05-24T04:44:27;45889.75;;;-144.44;100.00
7836;BME280;3963;42.658;23.298;2023-05-24T04:46:54;45796.88;;;-144.44;100.00
7836;BME280;3963;42.658;23.298;2023-05-24T04:49:22;45777.09;;;-144.44;100.00
7836;BME280;3963;42.658;23.298;2023-05-24T04:51:50;45765.25;;;-144.44;100.00
7836;BME280;3963;42.658;23.298;2023-05-24T04:54:17;45781.06;;;-144.44;100.00
7836;BME280;3963;42.658;23.298;2023-05-24T04:56:43;45745.47;;;-144.44;100.00
7836;BME280;3963;42.658;23.298;2023-05-24T04:59:10;45777.09;;;-144.44;100.00
7836;BME280;3963;42.658;23.298;2023-05-24T05:01:38;45684.19;;;-144.44;100.00
7836;BME280;3963;42.658;23.298;2023-05-24T05:04:05;45690.13;;;-144.44;100.00
7836;BME280;3963;42.658;23.298;2023-05-24T05:06:32;45638.75;;;-144.44;100.00
7836;BME280;3963;42.658;23.298;2023-05-24T05:09:04;45518.19;;;-144.44;100.00
7836;BME280;3963;42.658;23.298;2023-05-24T05:11:33;45579.44;;;-144.44;100.00
7836;BME280;3963;42.658;23.298;2023-05-24T05:14:00;45535.97;;;-144.44;100.00
7836;BME280;3963;42.658;23.298;2023-05-24T05:16:27;45532.00;;;-144.44;100.00
7836;BME280;3963;42.658;23.298;2023-05-24T05:18:54;45498.41;;;-144.44;100.00
7836;BME280;3963;42.658;23.298;2023-05-24T05:21:20;45470.75;;;-144.44;100.00
7836;BME280;3963;42.658;23.298;2023-05-24T05:23:47;45488.53;;;-144.44;100.00
7836;BME280;3963;42.658;23.298;2023-05-24T05:26:15;45443.06;;;-144.44;100.00
7836;BME280;3963;42.658;23.298;2023-05-24T05:28:42;45433.19;;;-144.44;100.00
7836;BME280;3963;42.658;23.298;2023-05-24T05:31:09;45417.38;;;-144.44;100.00
7836;BME280;3963;42.658;23.298;2023-05-24T05:33:35;45403.53;;;-144.44;100.00
7836;BME280;3963;42.658;23.298;2023-05-24T05:36:02;45391.69;;;-144.44;100.00
7836;BME280;3963;42.658;23.298;2023-05-24T05:38:29;45405.53;;;-144.44;100.00
7836;BME280;3963;42.658;23.298;2023-05-24T05:40:56;45403.53;;;-144.44;100.00
7836;BME280;3963;42.658;23.298;2023-05-24T05:43:24;45399.59;;;-144.44;100.00
7836;BME280;3963;42.658;23.298;2023-05-24T05:45:51;45385.75;;;-144.44;100.00
7836;BME280;3963;42.658;23.298;2023-05-24T05:48:17;45356.13;;;-144.44;100.00
7836;BME280;3963;42.658;23.298;2023-05-24T05:50:44;45330.44;;;-144.44;100.00
7836;BME280;3963;42.658;23.298;2023-05-24T05:53:11;45354.13;;;-144.44;100.00
7836;BME280;3963;42.658;23.298;2023-05-24T05:55:37;45346.22;;;-144.44;100.00
7836;BME280;3963;42.658;23.298;2023-05-24T05:58:04;45296.81;;;-144.44;100.00
7836;BME280;3963;42.658;23.298;2023-05-24T06:00:32;45255.31;;;-144.44;100.00
7836;BME280;3963;42.658;23.298;2023-05-24T06:02:59;45247.41;;;-144.44;100.00
7836;BME280;3963;42.658;23.298;2023-05-24T06:05:26;45247.41;;;-144.44;100.00
7836;BME280;3963;42.658;23.298;2023-05-24T06:07:52;45243.47;;;-144.44;100.00
7836;BME280;3963;42.658;23.298;2023-05-24T06:10:19;45243.47;;;-144.44;99.73
7836;BME280;3963;42.658;23.298;2023-05-24T06:12:46;45231.59;;;-144.44;99.30
7836;BME280;3963;42.658;23.298;2023-05-24T06:15:13;45229.63;;;-144.44;99.35
7836;BME280;3963;42.658;23.298;2023-05-24T06:17:42;45223.72;;;-144.44;98.16
7836;BME280;3963;42.658;23.298;2023-05-24T06:20:10;45209.88;;;-144.44;98.20
7836;BME280;3963;42.658;23.298;2023-05-24T06:22:39;45209.88;;;-144.44;98.02
7836;BME280;3963;42.658;23.298;2023-05-24T06:25:07;45223.72;;;-144.44;97.38
7836;BME280;3963;42.658;23.298;2023-05-24T06:27:34;45213.81;;;-144.44;96.19
7836;BME280;3963;42.658;23.298;2023-05-24T06:30:01;45219.75;;;-144.44;96.00
7836;BME280;3963;42.658;23.298;2023-05-24T06:32:28;45223.72;;;-144.44;94.61
7836;BME280;3963;42.658;23.298;2023-05-24T06:34:56;45209.88;;;-144.44;93.17
7836;BME280;3963;42.658;23.298;2023-05-24T06:37:22;45192.09;;;-144.44;92.16
7836;BME280;3963;42.658;23.298;2023-05-24T06:39:49;45207.91;;;-144.44;90.36
7836;BME280;3963;42.658;23.298;2023-05-24T06:42:16;45227.66;;;-144.44;89.62
7836;BME280;3963;42.658;23.298;2023-05-24T06:44:43;45203.94;;;-144.44;88.15
7836;BME280;3963;42.658;23.298;2023-05-24T06:47:10;45247.41;;;-144.44;85.32
7836;BME280;3963;42.658;23.298;2023-05-24T06:49:37;45255.31;;;-144.44;84.05
7836;BME280;3963;42.658;23.298;2023-05-24T06:52:05;45223.72;;;-144.44;80.86
7836;BME280;3963;42.658;23.298;2023-05-24T06:54:33;45243.47;;;-144.44;78.09
7836;BME280;3963;42.658;23.298;2023-05-24T06:57:00;45279.03;;;-144.44;77.12
7836;BME280;3963;42.658;23.298;2023-05-24T06:59:28;45271.13;;;-144.44;76.78
7836;BME280;3963;42.658;23.298;2023-05-24T07:01:54;45312.63;;;-144.44;75.04
7836;BME280;3963;42.658;23.298;2023-05-24T07:04:22;45294.84;;;-144.44;72.56
7836;BME280;3963;42.658;23.298;2023-05-24T07:06:50;45316.59;;;-144.44;71.87
7836;BME280;3963;42.658;23.298;2023-05-24T07:09:19;45332.41;;;-144.44;69.75
7836;BME280;3963;42.658;23.298;2023-05-24T07:11:46;45366.00;;;-144.44;63.89
7836;BME280;3963;42.658;23.298;2023-05-24T07:14:12;45367.97;;;-144.44;59.72
7836;BME280;3963;42.658;23.298;2023-05-24T07:16:39;45369.94;;;-144.44;59.48
7836;BME280;3963;42.658;23.298;2023-05-24T07:19:06;45377.84;;;-144.44;57.74
7836;BME280;3963;42.658;23.298;2023-05-24T07:21:33;45403.53;;;-144.44;57.80
7836;BME280;3963;42.658;23.298;2023-05-24T07:24:01;45391.69;;;-144.44;57.28
7836;BME280;3963;42.658;23.298;2023-05-24T07:26:30;45401.56;;;-144.44;56.16
7836;BME280;3963;42.658;23.298;2023-05-24T07:28:57;45439.13;;;-144.44;53.22
7836;BME280;3963;42.658;23.298;2023-05-24T07:31:24;45462.84;;;-144.44;52.36
7836;BME280;3963;42.658;23.298;2023-05-24T07:33:51;45464.81;;;-144.44;50.81
7836;BME280;3963;42.658;23.298;2023-05-24T07:36:18;45498.41;;;-144.44;49.42
7836;BME280;3963;42.658;23.298;2023-05-24T07:38:45;45520.16;;;-144.44;45.36
7836;BME280;3963;42.658;23.298;2023-05-24T07:41:13;45522.13;;;-144.44;44.53
7836;BME280;3963;42.658;23.298;2023-05-24T07:43:41;45498.41;;;-144.44;43.86
7836;BME280;3963;42.658;23.298;2023-05-24T07:46:08;45500.38;;;-144.44;43.63
7836;BME280;3963;42.658;23.298;2023-05-24T07:48:35;45555.72;;;-144.44;42.27
7836;BME280;3963;42.658;23.298;2023-05-24T07:51:02;45585.38;;;-144.44;41.95
7836;BME280;3963;42.658;23.298;2023-05-24T07:53:30;45559.69;;;-144.44;40.59
7836;BME280;3963;42.658;23.298;2023-05-24T07:55:58;45577.47;;;-144.44;39.83
7836;BME280;3963;42.658;23.298;2023-05-24T07:58:25;45605.13;;;-144.44;39.76
7836;BME280;3963;42.658;23.298;2023-05-24T08:00:53;45628.84;;;-144.44;39.57
7836;BME280;3963;42.658;23.298;2023-05-24T08:03:20;45589.34;;;-144.44;39.86
7836;BME280;3963;42.658;23.298;2023-05-24T08:05:50;45618.97;;;-144.44;39.78
7836;BME280;3963;42.658;23.298;2023-05-24T08:08:16;45632.81;;;-144.44;38.75
7836;BME280;3963;42.658;23.298;2023-05-24T08:10:43;45682.22;;;-144.44;38.08
7836;BME280;3963;42.658;23.298;2023-05-24T08:13:10;45670.38;;;-144.44;37.35
7836;BME280;3963;42.658;23.298;2023-05-24T08:15:37;45652.56;;;-144.44;37.92
7836;BME280;3963;42.658;23.298;2023-05-24T08:18:06;45650.59;;;-144.44;37.02
7836;BME280;3963;42.658;23.298;2023-05-24T08:20:33;45670.38;;;-144.44;36.65
7836;BME280;3963;42.658;23.298;2023-05-24T08:23:01;45735.59;;;-144.44;36.04
7836;BME280;3963;42.658;23.298;2023-05-24T08:25:28;45737.56;;;-144.44;34.41
7836;BME280;3963;42.658;23.298;2023-05-24T08:27:55;45709.91;;;-144.44;33.96
7836;BME280;3963;42.658;23.298;2023-05-24T08:30:22;45751.41;;;-144.44;33.18
7836;BME280;3963;42.658;23.298;2023-05-24T08:32:49;45769.19;;;-144.44;33.21
7836;BME280;3963;42.658;23.298;2023-05-24T08:35:18;45771.16;;;-144.44;32.49
7836;BME280;3963;42.658;23.298;2023-05-24T08:37:45;45785.00;;;-144.44;32.96
7836;BME280;3963;42.658;23.298;2023-05-24T08:40:12;45725.72;;;-144.44;32.75
7836;BME280;3963;42.658;23.298;2023-05-24T08:42:39;45735.59;;;-144.44;31.63
7836;BME280;3963;42.658;23.298;2023-05-24T08:45:09;45721.75;;;-144.44;31.74
7836;BME280;3963;42.658;23.298;2023-05-24T08:47:37;45733.63;;;-144.44;31.56
7836;BME280;3963;42.658;23.298;2023-05-24T08:50:05;45769.19;;;-144.44;31.43
7836;BME280;3963;42.658;23.298;2023-05-24T08:52:35;45761.28;;;-144.44;30.26
7836;BME280;3963;42.658;23.298;2023-05-24T08:55:02;45828.50;;;-144.44;29.74
7836;BME280;3963;42.658;23.298;2023-05-24T08:57:31;45862.09;;;-144.44;30.04
7836;BME280;3963;42.658;23.298;2023-05-24T08:59:59;45893.72;;;-144.44;29.62
7836;BME280;3963;42.658;23.298;2023-05-24T09:02:26;45875.94;;;-144.44;29.83
7836;BME280;3963;42.658;23.298;2023-05-24T09:04:53;45909.53;;;-144.44;29.21
7836;BME280;3963;42.658;23.298;2023-05-24T09:07:21;45864.06;;;-144.44;29.42
7836;BME280;3963;42.658;23.298;2023-05-24T09:09:56;45824.53;;;-144.44;29.88
7836;BME280;3963;42.658;23.298;2023-05-24T09:12:25;45887.78;;;-144.44;27.81
7836;BME280;3963;42.658;23.298;2023-05-24T09:14:53;45897.66;;;-144.44;27.93
7836;BME280;3963;42.658;23.298;2023-05-24T09:17:21;45895.69;;;-144.44;27.95
7836;BME280;3963;42.658;23.298;2023-05-24T09:19:49;45897.66;;;-144.44;28.55
7836;BME280;3963;42.658;23.298;2023-05-24T09:22:17;45911.50;;;-144.44;28.45
7836;BME280;3963;42.658;23.298;2023-05-24T09:24:48;45939.19;;;-144.44;28.35
7836;BME280;3963;42.658;23.298;2023-05-24T09:27:16;46016.28;;;-144.44;28.12
7836;BME280;3963;42.658;23.298;2023-05-24T09:29:43;45986.63;;;-144.44;27.53
7836;BME280;3963;42.658;23.298;2023-05-24T09:32:13;45984.66;;;-144.44;28.01
7836;BME280;3963;42.658;23.298;2023-05-24T09:34:41;45974.75;;;-144.44;27.07
7836;BME280;3963;42.658;23.298;2023-05-24T09:37:10;45875.94;;;-144.44;27.53
7836;BME280;3963;42.658;23.298;2023-05-24T09:39:39;45850.22;;;-144.44;27.79
7836;BME280;3963;42.658;23.298;2023-05-24T09:42:07;45846.28;;;-144.44;28.08
7836;BME280;3963;42.658;23.298;2023-05-24T09:44:35;45822.56;;;-144.44;27.60
7836;BME280;3963;42.658;23.298;2023-05-24T09:47:02;45848.25;;;-144.44;27.61
7836;BME280;3963;42.658;23.298;2023-05-24T09:49:30;45970.81;;;-144.44;27.72
7836;BME280;3963;42.658;23.298;2023-05-24T09:51:57;45980.69;;;-144.44;27.35
7836;BME280;3963;42.658;23.298;2023-05-24T09:54:24;45960.94;;;-144.44;27.22
7836;BME280;3963;42.658;23.298;2023-05-24T09:56:51;45972.78;;;-144.44;27.25
7836;BME280;3963;42.658;23.298;2023-05-24T09:59:18;45937.22;;;-144.44;27.17
7836;BME280;3963;42.658;23.298;2023-05-24T10:01:46;45990.56;;;-144.44;27.04
7836;BME280;3963;42.658;23.298;2023-05-24T10:04:18;46024.19;;;-144.44;27.30
7836;BME280;3963;42.658;23.298;2023-05-24T10:06:45;46105.22;;;-144.44;26.40
7836;BME280;3963;42.658;23.298;2023-05-24T10:09:13;46105.22;;;-144.44;26.08
7836;BME280;3963;42.658;23.298;2023-05-24T10:11:40;46071.63;;;-144.44;26.00
7836;BME280;3963;42.658;23.298;2023-05-24T10:14:08;46055.81;;;-144.44;26.58
7836;BME280;3963;42.658;23.298;2023-05-24T10:16:35;46018.25;;;-144.44;26.13
7836;BME280;3963;42.658;23.298;2023-05-24T10:19:05;46047.91;;;-144.44;26.20
7836;BME280;3963;42.658;23.298;2023-05-24T10:21:34;46038.00;;;-144.44;26.77
7836;BME280;3963;42.658;23.298;2023-05-24T10:24:04;46061.75;;;-144.44;26.29
7836;BME280;3963;42.658;23.298;2023-05-24T10:26:36;46111.16;;;-144.44;26.76
7836;BME280;3963;42.658;23.298;2023-05-24T10:29:08;45998.47;;;-144.44;26.65
7836;BME280;3963;42.658;23.298;2023-05-24T10:31:40;45907.56;;;-144.44;26.74
7836;BME280;3963;42.658;23.298;2023-05-24T10:34:09;45917.44;;;-144.44;26.96
7836;BME280;3963;42.658;23.298;2023-05-24T10:36:36;45909.53;;;-144.44;27.10
7836;BME280;3963;42.658;23.298;2023-05-24T10:39:07;45998.47;;;-144.44;26.97
7836;BME280;3963;42.658;23.298;2023-05-24T10:41:38;45984.66;;;-144.44;25.95
7836;BME280;3963;42.658;23.298;2023-05-24T10:44:09;46010.34;;;-144.44;24.89
7836;BME280;3963;42.658;23.298;2023-05-24T10:47:01;45982.66;;;-144.44;24.76
7836;BME280;3963;42.658;23.298;2023-05-24T10:49:29;45885.81;;;-144.44;25.98
7836;BME280;3963;42.658;23.298;2023-05-24T10:51:59;45883.84;;;-144.44;26.07
7836;BME280;3963;42.658;23.298;2023-05-24T10:54:27;45956.97;;;-144.44;25.83
7836;BME280;3963;42.658;23.298;2023-05-24T10:56:53;45929.31;;;-144.44;25.69
7836;BME280;3963;42.658;23.298;2023-05-24T10:59:28;45862.09;;;-144.44;26.55
7836;BME280;3963;42.658;23.298;2023-05-24T11:01:59;45785.00;;;-144.44;27.19
7836;BME280;3963;42.658;23.298;2023-05-24T11:04:31;45824.53;;;-144.44;27.31
7836;BME280;3963;42.658;23.298;2023-05-24T11:07:00;45792.91;;;-144.44;27.38
7836;BME280;3963;42.658;23.298;2023-05-24T11:09:29;45796.88;;;-144.44;27.42
7836;BME280;3963;42.658;23.298;2023-05-24T11:12:00;45804.78;;;-144.44;27.38
7836;BME280;3963;42.658;23.298;2023-05-24T11:14:29;45794.88;;;-144.44;27.97
7836;BME280;3963;42.658;23.298;2023-05-24T11:16:57;45765.25;;;-144.44;26.70
7836;BME280;3963;42.658;23.298;2023-05-24T11:19:31;45741.53;;;-144.44;27.65
7836;BME280;3963;42.658;23.298;2023-05-24T11:22:00;45741.53;;;-144.44;27.65
7836;BME280;3963;42.658;23.298;2023-05-24T11:24:27;45767.22;;;-144.44;27.52
7836;BME280;3963;42.658;23.298;2023-05-24T11:26:55;45751.41;;;-144.44;27.38
7836;BME280;3963;42.658;23.298;2023-05-24T11:29:22;45747.44;;;-144.44;27.89
7836;BME280;3963;42.658;23.298;2023-05-24T11:31:50;45717.81;;;-144.44;27.64
7836;BME280;3963;42.658;23.298;2023-05-24T11:34:17;45717.81;;;-144.44;28.23
7836;BME280;3963;42.658;23.298;2023-05-24T11:36:46;45694.09;;;-144.44;28.78
7836;BME280;3963;42.658;23.298;2023-05-24T11:39:13;45707.91;;;-144.44;28.12
7836;BME280;3963;42.658;23.298;2023-05-24T11:41:40;45646.66;;;-144.44;28.09
7836;BME280;3963;42.658;23.298;2023-05-24T11:44:08;45672.34;;;-144.44;28.43
7836;BME280;3963;42.658;23.298;2023-05-24T11:46:36;45646.66;;;-144.44;29.36
7836;BME280;3963;42.658;23.298;2023-05-24T11:49:04;45672.34;;;-144.44;28.46
7836;BME280;3963;42.658;23.298;2023-05-24T11:51:32;45646.66;;;-144.44;28.57
7836;BME280;3963;42.658;23.298;2023-05-24T11:54:01;45656.53;;;-144.44;28.79
7836;BME280;3963;42.658;23.298;2023-05-24T11:56:29;45615.03;;;-144.44;29.44
7836;BME280;3963;42.658;23.298;2023-05-24T11:59:05;45611.06;;;-144.44;30.22
7836;BME280;3963;42.658;23.298;2023-05-24T12:01:34;45611.06;;;-144.44;29.63
7836;BME280;3963;42.658;23.298;2023-05-24T12:04:04;45607.13;;;-144.44;29.75
7836;BME280;3963;42.658;23.298;2023-05-24T12:06:36;45617.00;;;-144.44;29.86
7836;BME280;3963;42.658;23.298;2023-05-24T12:09:05;45626.88;;;-144.44;29.80
7836;BME280;3963;42.658;23.298;2023-05-24T12:11:37;45640.72;;;-144.44;29.44
7836;BME280;3963;42.658;23.298;2023-05-24T12:14:04;45611.06;;;-144.44;30.05
7836;BME280;3963;42.658;23.298;2023-05-24T12:16:31;45652.56;;;-144.44;29.35
7836;BME280;3963;42.658;23.298;2023-05-24T12:19:00;45636.75;;;-144.44;29.31
7836;BME280;3963;42.658;23.298;2023-05-24T12:21:29;45626.88;;;-144.44;29.54
7836;BME280;3963;42.658;23.298;2023-05-24T12:24:06;45617.00;;;-144.44;29.83
7836;BME280;3963;42.658;23.298;2023-05-24T12:26:34;45589.34;;;-144.44;30.04
7836;BME280;3963;42.658;23.298;2023-05-24T12:29:02;45587.34;;;-144.44;30.49
7836;BME280;3963;42.658;23.298;2023-05-24T12:31:29;45607.13;;;-144.44;30.46
7836;BME280;3963;42.658;23.298;2023-05-24T12:33:56;45620.94;;;-144.44;28.79
7836;BME280;3963;42.658;23.298;2023-05-24T12:36:23;45626.88;;;-144.44;28.41
7836;BME280;3963;42.658;23.298;2023-05-24T12:38:50;45678.28;;;-144.44;28.62
7836;BME280;3963;42.658;23.298;2023-05-24T12:41:18;45682.22;;;-144.44;28.81
7836;BME280;3963;42.658;23.298;2023-05-24T12:43:45;45674.31;;;-144.44;28.65
7836;BME280;3963;42.658;23.298;2023-05-24T12:46:12;45666.41;;;-144.44;28.78
7836;BME280;3963;42.658;23.298;2023-05-24T12:48:38;45595.25;;;-144.44;28.06
7836;BME280;3963;42.658;23.298;2023-05-24T12:51:05;45555.72;;;-144.44;28.69